Time;durP1;ratioP1;P1;durP2;ratioP2;P2;SDS_P1;SDS_P2;PMS_P1;PMS_P2;Temp;Humidity;BMP_temperature;BMP_pressure;BME280_temperature;BME280_humidity;BME280_pressure;Samples;Min_cycle;Max_cycle;Signal;HPM_P1;HPM_P2
2022/08/11 00:00:43;;;;;;;3.70;3.00;;;29.30;50.10;;;;;;4933668;29;20474;-74
2022/08/11 00:03:12;;;;;;;3.00;2.70;;;29.30;50.10;;;;;;4945143;28;20550;-74
2022/08/11 00:05:59;;;;;;;6.30;2.57;;;29.20;50.10;;;;;;4946086;29;20405;-74
2022/08/11 00:08:30;;;;;;;3.13;2.73;;;29.20;50.20;;;;;;4949079;29;20494;-74
2022/08/11 00:11:00;;;;;;;3.00;2.67;;;29.20;50.20;;;;;;4933314;29;20460;-74
2022/08/11 00:13:32;;;;;;;3.77;2.80;;;29.20;50.20;;;;;;4917083;29;20786;-74
2022/08/11 00:16:14;;;;;;;3.30;2.73;;;29.10;50.20;;;;;;4934535;29;20451;-74
2022/08/11 00:18:50;;;;;;;5.60;2.63;;;29.10;50.20;;;;;;4943703;29;20499;-74
2022/08/11 00:21:19;;;;;;;3.43;2.90;;;29.10;50.20;;;;;;4933324;29;20808;-74
2022/08/11 00:24:02;;;;;;;2.90;2.70;;;29.10;50.30;;;;;;4934084;29;20419;-74
2022/08/11 00:26:29;;;;;;;3.37;3.07;;;29.10;50.40;;;;;;4945569;29;20442;-74
2022/08/11 00:29:10;;;;;;;2.87;2.67;;;29.00;50.40;;;;;;4917310;29;20508;-74
2022/08/11 00:31:37;;;;;;;3.27;2.90;;;29.10;50.50;;;;;;4934393;29;20844;-74
2022/08/11 00:34:08;;;;;;;2.73;2.40;;;29.00;50.50;;;;;;4941353;29;20450;-74
2022/08/11 00:36:49;;;;;;;3.23;2.83;;;29.00;50.50;;;;;;4948056;28;21016;-74
2022/08/11 00:39:22;;;;;;;4.03;2.73;;;29.00;50.50;;;;;;4932525;29;20912;-74
2022/08/11 00:42:08;;;;;;;3.07;2.70;;;28.90;50.50;;;;;;4938114;28;20448;-74
2022/08/11 00:44:53;;;;;;;3.30;2.80;;;28.90;50.50;;;;;;4936451;29;20976;-74
2022/08/11 00:47:34;;;;;;;2.97;2.70;;;28.90;50.50;;;;;;4943659;29;20447;-74
2022/08/11 00:50:28;;;;;;;3.20;2.87;;;28.90;50.60;;;;;;4936144;29;20430;-74
2022/08/11 00:53:04;;;;;;;3.07;2.77;;;28.80;50.60;;;;;;4936043;29;21164;-74
2022/08/11 00:56:07;;;;;;;3.30;2.70;;;28.90;50.70;;;;;;4952542;29;20447;-75
2022/08/11 00:59:07;;;;;;;2.70;2.50;;;28.80;50.70;;;;;;4935968;29;20576;-74
2022/08/11 01:01:35;;;;;;;4.50;3.03;;;28.80;50.70;;;;;;4920341;29;20450;-74
2022/08/11 01:04:25;;;;;;;3.20;2.90;;;28.80;50.70;;;;;;4936951;29;20431;-74
2022/08/11 01:07:24;;;;;;;3.33;3.03;;;28.70;50.70;;;;;;4948568;29;20421;-74
2022/08/11 01:10:05;;;;;;;3.83;3.13;;;28.70;50.80;;;;;;4935999;29;20468;-74
2022/08/11 01:13:08;;;;;;;4.00;3.00;;;28.70;50.80;;;;;;4932616;29;20460;-74
2022/08/11 01:15:45;;;;;;;3.90;2.73;;;28.70;50.90;;;;;;4946472;29;20439;-74
2022/08/11 01:18:49;;;;;;;2.77;2.57;;;28.60;50.90;;;;;;4936676;29;20451;-74
2022/08/11 01:21:33;;;;;;;3.80;3.33;;;28.60;50.90;;;;;;4915169;29;20466;-74
2022/08/11 01:24:14;;;;;;;2.67;2.30;;;28.60;51.00;;;;;;4947813;29;20431;-74
2022/08/11 01:27:02;;;;;;;3.10;2.67;;;28.50;51.00;;;;;;4936999;29;20443;-74
2022/08/11 01:29:46;;;;;;;3.20;2.93;;;28.60;51.10;;;;;;4945587;29;20524;-74
2022/08/11 01:32:26;;;;;;;3.53;2.87;;;28.50;51.10;;;;;;4936513;29;20526;-74
2022/08/11 01:35:23;;;;;;;3.50;3.20;;;28.50;51.00;;;;;;4935759;29;20483;-74
2022/08/11 01:38:08;;;;;;;3.53;3.20;;;28.50;51.10;;;;;;4936043;29;20542;-74
2022/08/11 01:41:06;;;;;;;2.63;2.40;;;28.50;51.10;;;;;;4931209;29;20424;-74
2022/08/11 01:47:50;;;;;;;3.17;2.60;;;28.40;51.10;;;;;;4925324;29;20412;-74
2022/08/11 01:50:27;;;;;;;3.40;3.10;;;28.40;51.10;;;;;;4914590;29;20460;-74
2022/08/11 01:53:22;;;;;;;3.77;2.80;;;28.30;51.10;;;;;;4914514;29;20460;-74
2022/08/11 01:56:03;;;;;;;3.00;2.70;;;28.30;51.20;;;;;;4921372;29;20932;-74
2022/08/11 01:58:44;;;;;;;3.23;2.93;;;28.30;51.20;;;;;;4936178;29;20950;-74
2022/08/11 02:01:24;;;;;;;3.80;2.87;;;28.30;51.20;;;;;;4951090;29;20936;-74
2022/08/11 02:04:04;;;;;;;5.37;3.17;;;28.20;51.10;;;;;;4934959;29;20431;-74
2022/08/11 02:06:58;;;;;;;2.97;2.60;;;28.20;51.20;;;;;;4935596;29;21139;-74
2022/08/11 02:09:30;;;;;;;3.50;3.20;;;28.20;51.20;;;;;;4950347;28;20440;-74
2022/08/11 02:12:08;;;;;;;3.63;2.57;;;28.20;51.20;;;;;;4935019;29;20985;-74
2022/08/11 02:15:06;;;;;;;3.33;2.80;;;28.20;51.30;;;;;;4943784;29;20448;-74
2022/08/11 02:18:01;;;;;;;3.00;2.63;;;28.10;51.20;;;;;;4934766;29;20853;-74
2022/08/11 02:23:52;;;;;;;3.50;2.67;;;28.10;51.30;;;;;;4935372;29;20458;-74
2022/08/11 02:26:25;;;;;;;3.00;2.80;;;28.10;51.30;;;;;;4931454;29;20452;-74
2022/08/11 02:29:21;;;;;;;3.13;2.83;;;28.10;51.30;;;;;;4936438;29;21449;-74
2022/08/11 02:35:21;;;;;;;3.00;2.70;;;28.00;51.30;;;;;;4934274;29;20434;-74
2022/08/11 02:38:42;;;;;;;3.30;2.63;;;28.00;51.40;;;;;;4934555;29;20511;-74
2022/08/11 02:44:49;;;;;;;5.10;3.00;;;28.00;51.50;;;;;;4916740;29;20436;-74
2022/08/11 02:49:52;;;;;;;3.30;2.70;;;27.90;51.40;;;;;;4934379;29;20974;-74
2022/08/11 02:50:56;;;;;;;3.30;3.00;;;27.90;51.50;;;;;;4918708;29;20451;-74
2022/08/11 02:53:50;;;;;;;5.00;2.83;;;27.90;51.60;;;;;;4950251;28;20471;-74
2022/08/11 02:56:43;;;;;;;2.77;2.57;;;27.90;51.60;;;;;;4917688;29;20803;-74
2022/08/11 03:02:53;;;;;;;3.37;3.07;;;27.80;51.60;;;;;;4920965;29;20447;-74
2022/08/11 03:05:42;;;;;;;2.93;2.63;;;27.80;51.60;;;;;;4933682;29;20436;-74
2022/08/11 03:08:30;;;;;;;2.90;2.70;;;27.80;51.60;;;;;;4949991;29;20400;-74
2022/08/11 03:17:28;;;;;;;3.53;3.23;;;27.70;51.70;;;;;;4933845;29;20464;-74
2022/08/11 03:20:15;;;;;;;3.87;3.40;;;27.70;52.30;;;;;;4934074;29;20470;-74
2022/08/11 03:22:56;;;;;;;3.23;2.93;;;27.60;51.70;;;;;;4935148;29;20475;-74
2022/08/11 03:25:54;;;;;;;3.10;2.90;;;27.60;51.70;;;;;;4946232;29;20480;-74
2022/08/11 03:28:34;;;;;;;3.60;3.30;;;27.60;51.70;;;;;;4937723;29;20502;-74
2022/08/11 03:31:23;;;;;;;3.73;3.30;;;27.60;51.80;;;;;;4933672;29;20428;-74
2022/08/11 03:34:03;;;;;;;3.60;3.30;;;27.60;51.80;;;;;;4933580;29;20428;-74
2022/08/11 03:36:45;;;;;;;5.60;3.20;;;27.50;51.80;;;;;;4934165;29;20483;-74
2022/08/11 03:39:32;;;;;;;3.93;3.57;;;27.50;51.80;;;;;;4949531;29;20459;-74
2022/08/11 03:42:21;;;;;;;5.53;3.37;;;27.50;51.90;;;;;;4948504;28;21166;-74
2022/08/11 03:44:58;;;;;;;3.00;2.70;;;27.50;51.80;;;;;;4933421;29;20448;-74
2022/08/11 03:47:33;;;;;;;3.47;3.17;;;27.40;51.80;;;;;;4934733;29;20457;-74
2022/08/11 03:50:23;;;;;;;3.70;3.23;;;27.40;51.90;;;;;;4933352;29;20483;-74
2022/08/11 03:53:26;;;;;;;3.60;3.20;;;27.40;51.90;;;;;;4937242;29;20458;-74
2022/08/11 03:56:29;;;;;;;3.07;2.80;;;27.40;51.90;;;;;;4916360;29;21053;-74
2022/08/11 03:59:01;;;;;;;3.57;3.27;;;27.40;52.00;;;;;;4916906;29;20522;-74
2022/08/11 04:05:15;;;;;;;5.07;2.57;;;27.30;52.00;;;;;;4864723;29;20489;-68
2022/08/11 04:08:31;;;;;;;3.90;3.20;;;27.30;52.00;;;;;;4888653;29;20525;-68
2022/08/11 04:10:58;;;;;;;3.33;3.03;;;27.30;52.00;;;;;;4910676;29;20845;-68
2022/08/11 04:15:58;;;;;;;6.23;3.70;;;27.30;52.10;;;;;;4896319;29;20449;-67
2022/08/11 04:16:55;;;;;;;3.77;3.47;;;27.20;52.00;;;;;;4897082;29;20461;-68
2022/08/11 04:19:55;;;;;;;3.80;3.17;;;27.20;52.10;;;;;;4898673;29;20893;-68
2022/08/11 04:22:48;;;;;;;3.33;2.67;;;27.20;52.20;;;;;;4885636;29;20465;-67
2022/08/11 04:25:26;;;;;;;4.40;3.73;;;27.10;52.10;;;;;;4899413;29;20454;-68
2022/08/11 04:28:26;;;;;;;3.60;3.00;;;27.10;52.20;;;;;;4898735;29;20445;-67
2022/08/11 04:31:09;;;;;;;3.60;3.30;;;27.10;52.20;;;;;;4898350;29;20410;-68
2022/08/11 04:33:38;;;;;;;3.57;2.80;;;27.10;52.20;;;;;;4898884;29;20554;-68
2022/08/11 04:37:31;;;;;;;3.67;3.10;;;27.10;52.20;;;;;;4899468;29;20797;-67
2022/08/11 04:39:31;;;;;;;3.40;3.03;;;27.00;52.20;;;;;;4899541;29;20434;-68
2022/08/11 04:45:45;;;;;;;3.97;2.90;;;27.00;52.20;;;;;;4898543;29;20440;-67
2022/08/11 05:03:40;;;;;;;4.07;3.60;;;26.90;52.40;;;;;;4897816;29;20449;-68
2022/08/11 05:06:32;;;;;;;4.03;3.63;;;26.90;52.50;;;;;;4899449;29;20446;-68
2022/08/11 05:09:09;;;;;;;3.73;3.43;;;26.90;52.50;;;;;;4881904;29;20480;-68
2022/08/11 05:11:43;;;;;;;4.97;3.50;;;26.80;52.50;;;;;;4898176;29;20979;-68
2022/08/11 05:37:21;;;;;;;3.87;3.17;;;26.70;52.80;;;;;;4898763;29;20434;-67
2022/08/11 05:56:55;;;;;;;4.20;3.80;;;26.60;52.90;;;;;;4897256;29;20509;-70
2022/08/11 05:59:24;;;;;;;3.90;3.50;;;26.60;52.90;;;;;;4896874;29;20994;-69
2022/08/11 06:01:53;;;;;;;3.30;3.00;;;26.50;52.90;;;;;;4897112;29;20434;-68
2022/08/11 06:04:27;;;;;;;4.53;3.50;;;26.60;53.00;;;;;;4897013;29;20450;-68
2022/08/11 06:06:59;;;;;;;3.80;3.40;;;26.60;53.00;;;;;;4881440;29;20897;-68
2022/08/11 06:09:45;;;;;;;3.50;3.10;;;26.60;53.00;;;;;;4897016;29;20441;-68
2022/08/11 06:12:25;;;;;;;3.67;3.37;;;26.50;52.90;;;;;;4897758;29;20784;-68
2022/08/11 06:14:55;;;;;;;4.30;3.00;;;26.50;53.00;;;;;;4897096;29;20424;-67
2022/08/11 06:17:34;;;;;;;3.80;3.47;;;26.50;53.00;;;;;;4897979;29;20503;-68
2022/08/11 06:20:08;;;;;;;3.73;3.40;;;26.50;53.10;;;;;;4897829;29;20974;-68
2022/08/11 06:22:41;;;;;;;5.33;3.40;;;26.50;53.00;;;;;;4896566;29;20453;-68
2022/08/11 06:25:14;;;;;;;4.27;3.63;;;26.40;53.00;;;;;;4897678;29;20493;-68
2022/08/11 06:27:44;;;;;;;4.30;3.90;;;26.40;53.10;;;;;;4880030;29;20442;-68
2022/08/11 06:30:14;;;;;;;3.70;3.40;;;26.40;53.10;;;;;;4897891;29;20414;-68
2022/08/11 06:32:46;;;;;;;3.50;3.30;;;26.40;53.10;;;;;;4896601;29;20481;-68
2022/08/11 06:35:16;;;;;;;4.53;3.67;;;26.40;53.10;;;;;;4896616;29;20433;-68
2022/08/11 06:37:52;;;;;;;3.87;3.30;;;26.40;53.10;;;;;;4895776;29;20473;-68
2022/08/11 06:40:31;;;;;;;3.60;3.30;;;26.40;53.10;;;;;;4897159;29;20401;-66
2022/08/11 06:43:29;;;;;;;3.40;2.80;;;26.40;53.20;;;;;;4889138;29;20457;-68
2022/08/11 06:46:07;;;;;;;3.27;2.97;;;26.40;53.10;;;;;;4895991;29;20433;-68
2022/08/11 06:48:34;;;;;;;5.10;3.33;;;26.40;53.20;;;;;;4897021;29;20432;-68
2022/08/11 06:51:14;;;;;;;3.63;3.20;;;26.40;53.10;;;;;;4896410;29;20505;-68
2022/08/11 06:53:52;;;;;;;3.50;3.10;;;26.40;53.20;;;;;;4895747;29;20444;-68
2022/08/11 07:02:17;;;;;;;3.33;3.03;;;26.40;53.20;;;;;;4896473;29;20856;-68
2022/08/11 07:05:03;;;;;;;3.70;3.20;;;26.40;53.20;;;;;;4895773;29;20450;-68
2022/08/11 07:17:18;;;;;;;3.30;3.10;;;26.40;53.20;;;;;;4878661;29;20461;-68
2022/08/11 07:28:54;;;;;;;3.70;3.40;;;26.40;53.20;;;;;;4895301;29;20450;-68
2022/08/11 07:31:27;;;;;;;4.30;3.37;;;26.40;53.10;;;;;;4895300;29;20978;-68
2022/08/11 07:34:19;;;;;;;3.47;3.17;;;26.40;53.10;;;;;;4893264;29;20540;-68
2022/08/11 07:37:01;;;;;;;3.50;3.20;;;26.40;53.20;;;;;;4895112;29;20457;-68
2022/08/11 07:39:33;;;;;;;3.83;3.20;;;26.40;53.20;;;;;;4879798;29;20809;-68
2022/08/11 07:42:13;;;;;;;3.93;3.63;;;26.40;53.20;;;;;;4896523;29;20453;-68
2022/08/11 07:53:01;;;;;;;5.37;3.67;;;26.50;53.30;;;;;;4900429;29;20516;-68
2022/08/11 07:55:30;;;;;;;4.70;3.80;;;26.50;53.40;;;;;;4900040;29;20429;-68
2022/08/11 08:17:56;;;;;;;3.80;3.50;;;26.60;53.40;;;;;;4899777;29;20528;-69
2022/08/11 08:20:49;;;;;;;4.07;3.70;;;26.60;53.30;;;;;;4878692;29;20433;-68
2022/08/11 08:23:31;;;;;;;3.60;3.30;;;26.60;53.40;;;;;;4878683;29;20455;-67
2022/08/11 08:26:02;;;;;;;3.80;3.50;;;26.60;53.30;;;;;;4879498;29;20442;-68
2022/08/11 08:28:28;;;;;;;4.10;3.80;;;26.60;53.20;;;;;;4879055;29;20804;-67
2022/08/11 08:31:02;;;;;;;3.80;3.50;;;26.60;53.20;;;;;;4863517;29;20438;-66
2022/08/11 08:33:32;;;;;;;5.73;3.70;;;26.60;53.20;;;;;;4862966;29;20831;-68
2022/08/11 08:36:15;;;;;;;4.60;3.70;;;26.70;53.30;;;;;;4877925;29;20457;-69
2022/08/11 08:38:45;;;;;;;4.17;3.87;;;26.70;53.30;;;;;;4878250;29;20470;-67
2022/08/11 08:41:17;;;;;;;4.73;3.90;;;26.70;53.30;;;;;;4878556;29;20967;-67
2022/08/11 08:43:50;;;;;;;4.43;4.00;;;26.70;53.30;;;;;;4878267;29;21037;-68
2022/08/11 08:46:21;;;;;;;4.10;3.70;;;26.80;53.30;;;;;;4877831;29;20427;-68
2022/08/11 08:48:49;;;;;;;4.67;4.27;;;26.80;53.30;;;;;;4861568;29;20464;-68
2022/08/11 08:51:34;;;;;;;4.30;3.90;;;26.80;53.30;;;;;;4875673;29;20533;-67
2022/08/11 08:54:04;;;;;;;4.70;4.10;;;26.80;53.30;;;;;;4863850;29;20860;-67
2022/08/11 08:56:34;;;;;;;4.37;3.97;;;26.80;53.20;;;;;;4878595;29;20462;-68
2022/08/11 08:59:02;;;;;;;6.50;4.13;;;26.90;53.20;;;;;;4899265;29;20560;-67
2022/08/11 09:01:50;;;;;;;4.33;4.03;;;26.90;53.20;;;;;;4898292;29;20493;-66
2022/08/11 09:04:18;;;;;;;4.20;3.90;;;26.90;53.10;;;;;;4866808;29;20446;-67
2022/08/11 09:06:50;;;;;;;4.43;4.13;;;27.00;53.10;;;;;;4897583;29;20410;-66
2022/08/11 09:09:16;;;;;;;4.90;4.27;;;27.00;53.10;;;;;;4897897;29;20773;-70
2022/08/11 09:11:49;;;;;;;4.33;4.03;;;27.00;53.00;;;;;;4898336;29;20489;-68
2022/08/11 09:14:19;;;;;;;4.40;3.93;;;27.00;53.00;;;;;;4897170;29;20519;-67
2022/08/11 09:16:47;;;;;;;3.90;3.60;;;27.10;52.90;;;;;;4896127;29;20433;-67
2022/08/11 09:19:16;;;;;;;4.10;3.77;;;27.10;52.80;;;;;;4897716;29;20477;-67
2022/08/11 09:26:58;;;;;;;4.17;3.80;;;27.10;52.60;;;;;;4896114;29;20485;-67
2022/08/11 09:27:26;;;;;;;4.30;4.00;;;27.20;52.70;;;;;;4890770;29;20454;-67
2022/08/11 09:30:14;;;;;;;4.80;4.30;;;27.30;52.70;;;;;;4916664;29;21153;-67
2022/08/11 09:32:43;;;;;;;4.80;4.27;;;27.30;52.70;;;;;;4887278;29;20501;-67
2022/08/11 09:35:10;;;;;;;4.53;4.13;;;27.30;52.60;;;;;;4898345;29;20792;-67
2022/08/11 09:40:28;;;;;;;4.80;4.40;;;27.40;52.50;;;;;;4885525;29;20449;-67
2022/08/11 09:45:50;;;;;;;4.00;3.70;;;27.40;52.20;;;;;;4892794;29;20544;-67
2022/08/11 09:48:22;;;;;;;4.60;3.50;;;27.50;52.00;;;;;;4881812;29;20604;-67
2022/08/11 09:50:53;;;;;;;3.90;3.60;;;27.50;52.00;;;;;;4881438;29;20903;-67
2022/08/11 09:53:24;;;;;;;4.47;4.00;;;27.60;52.10;;;;;;4898438;29;20454;-69
2022/08/11 09:55:55;;;;;;;3.87;3.57;;;27.60;51.90;;;;;;4895719;29;20456;-68
2022/08/11 09:58:23;;;;;;;4.40;4.00;;;27.70;51.90;;;;;;4898177;29;20461;-67
2022/08/11 10:01:26;;;;;;;4.23;3.93;;;27.70;51.90;;;;;;4867790;29;20435;-67
2022/08/11 10:04:07;;;;;;;5.07;4.30;;;27.70;51.80;;;;;;4860919;29;21047;-67
2022/08/11 10:09:24;;;;;;;4.70;4.40;;;27.80;51.50;;;;;;4897505;29;20542;-67
2022/08/11 10:11:56;;;;;;;4.03;3.70;;;27.90;51.60;;;;;;4897076;29;20461;-68
2022/08/11 10:17:13;;;;;;;5.00;4.60;;;27.90;51.20;;;;;;4880356;29;20537;-67
2022/08/11 10:19:41;;;;;;;4.60;4.30;;;28.00;51.20;;;;;;4896863;29;20437;-68
2022/08/11 10:27:45;;;;;;;4.50;4.20;;;28.10;51.00;;;;;;4896317;29;20437;-68
2022/08/11 10:36:13;;;;;;;5.30;4.87;;;28.20;50.90;;;;;;4887706;29;20442;-67
2022/08/11 10:38:39;;;;;;;4.60;3.90;;;28.20;50.90;;;;;;4896252;29;20479;-67
2022/08/11 10:43:51;;;;;;;4.80;4.43;;;28.30;51.00;;;;;;4885941;29;20420;-68
2022/08/11 10:49:06;;;;;;;5.40;5.00;;;28.40;50.90;;;;;;4896509;29;20480;-68
2022/08/11 11:00:23;;;;;;;4.40;4.10;;;28.60;50.60;;;;;;4891462;29;20476;-67
2022/08/11 11:02:51;;;;;;;5.13;4.60;;;28.60;50.80;;;;;;4897242;29;20491;-68
2022/08/11 11:05:29;;;;;;;4.90;4.50;;;28.60;50.70;;;;;;4895115;29;20521;-67
2022/08/11 11:10:57;;;;;;;5.10;4.70;;;28.70;50.60;;;;;;4896003;29;20398;-67
2022/08/11 11:19:21;;;;;;;5.10;4.77;;;28.80;50.20;;;;;;4896470;29;20469;-71
2022/08/11 11:21:54;;;;;;;5.37;4.97;;;28.90;50.20;;;;;;4894997;29;20516;-67
2022/08/11 11:24:41;;;;;;;5.43;4.93;;;28.90;50.30;;;;;;4895310;29;20398;-67
2022/08/11 11:27:26;;;;;;;5.57;5.13;;;29.00;50.30;;;;;;4892112;29;20480;-70
2022/08/11 11:30:04;;;;;;;5.53;5.03;;;29.00;50.20;;;;;;4877546;29;20493;-67
2022/08/11 11:33:00;;;;;;;5.13;4.73;;;29.00;50.20;;;;;;4895446;29;20438;-67
2022/08/11 11:35:38;;;;;;;8.33;5.20;;;29.00;50.20;;;;;;4896887;29;20517;-67
2022/08/11 11:38:09;;;;;;;5.47;5.00;;;29.10;50.20;;;;;;4903203;29;20453;-68
2022/08/11 11:40:37;;;;;;;4.83;4.43;;;29.10;50.20;;;;;;4895336;29;20426;-67
2022/08/11 11:43:07;;;;;;;5.47;5.07;;;29.10;50.00;;;;;;4895934;29;20462;-68
2022/08/11 11:45:37;;;;;;;5.70;5.30;;;29.20;50.10;;;;;;4895687;29;20437;-67
2022/08/11 11:48:06;;;;;;;5.27;4.80;;;29.20;50.10;;;;;;4895391;29;20509;-67
2022/08/11 11:50:38;;;;;;;4.70;4.30;;;29.30;50.10;;;;;;4895494;29;20441;-68
2022/08/11 11:53:08;;;;;;;4.80;4.13;;;29.30;50.20;;;;;;4896526;29;20457;-67
2022/08/11 11:55:37;;;;;;;5.53;5.03;;;29.40;50.10;;;;;;4880087;29;20453;-68
2022/08/11 12:03:37;;;;;;;6.03;4.90;;;29.50;49.90;;;;;;4895231;29;20475;-68
2022/08/11 12:06:06;;;;;;;5.10;4.60;;;29.50;49.90;;;;;;4895168;29;20999;-67
2022/08/11 12:08:33;;;;;;;5.17;4.77;;;29.50;49.80;;;;;;4895041;29;20457;-67
2022/08/11 12:14:03;;;;;;;5.70;5.20;;;29.50;49.50;;;;;;4925637;29;20953;-72
2022/08/11 12:16:30;;;;;;;5.77;4.70;;;29.60;49.30;;;;;;4928982;29;21017;-72
2022/08/11 12:19:04;;;;;;;5.43;5.03;;;29.70;49.40;;;;;;4909833;29;20912;-72
2022/08/11 12:21:31;;;;;;;4.63;4.23;;;29.70;49.40;;;;;;4925761;29;20461;-72
2022/08/11 12:29:33;;;;;;;5.13;4.73;;;29.80;49.10;;;;;;4914149;29;20413;-72
2022/08/11 12:31:59;;;;;;;4.87;4.57;;;29.90;49.20;;;;;;4914759;29;20495;-72
2022/08/11 12:34:26;;;;;;;5.00;4.60;;;29.90;49.10;;;;;;4915089;29;20437;-72
2022/08/11 12:37:04;;;;;;;5.20;4.70;;;29.90;49.00;;;;;;4879688;29;20441;-72
2022/08/11 12:45:30;;;;;;;5.60;5.10;;;30.00;48.60;;;;;;4917172;29;20500;-72
2022/08/11 12:54:19;;;;;;;5.43;4.93;;;30.10;49.10;;;;;;4901084;29;20488;-71
2022/08/11 13:05:13;;;;;;;4.90;4.50;;;30.20;48.40;;;;;;4899732;29;20456;-72
2022/08/11 13:07:44;;;;;;;5.10;4.80;;;30.30;48.40;;;;;;4909210;29;20473;-72
2022/08/11 13:12:46;;;;;;;4.90;4.60;;;30.30;48.40;;;;;;4914795;29;20432;-72
2022/08/11 13:13:22;;;;;;;5.30;4.80;;;30.30;48.30;;;;;;4901900;29;21000;-72
2022/08/11 13:15:49;;;;;;;4.73;4.30;;;30.30;48.20;;;;;;4914679;29;20445;-72
2022/08/11 13:18:22;;;;;;;5.90;5.40;;;30.40;48.00;;;;;;4915212;29;20564;-72
2022/08/11 13:20:54;;;;;;;4.80;4.40;;;30.40;48.00;;;;;;4911203;29;20981;-72
2022/08/11 13:23:24;;;;;;;5.00;4.60;;;30.50;47.80;;;;;;4899484;29;20805;-72
2022/08/11 13:25:53;;;;;;;5.17;4.77;;;30.50;47.80;;;;;;4901911;29;20421;-72
2022/08/11 13:28:21;;;;;;;5.50;5.10;;;30.50;47.70;;;;;;4930698;29;20499;-72
2022/08/11 13:33:58;;;;;;;4.87;4.47;;;30.60;47.30;;;;;;4897203;29;20955;-72
2022/08/11 13:36:27;;;;;;;4.60;4.30;;;30.60;47.10;;;;;;4899057;29;20426;-72
2022/08/11 13:38:57;;;;;;;5.53;5.13;;;30.70;47.10;;;;;;4900555;29;20456;-72
2022/08/11 13:41:39;;;;;;;5.13;4.83;;;30.70;47.10;;;;;;4917282;29;20815;-72
2022/08/11 13:44:13;;;;;;;5.60;5.10;;;30.70;47.10;;;;;;4916298;29;20488;-72
2022/08/11 13:46:42;;;;;;;5.23;4.83;;;30.80;47.10;;;;;;4916134;29;20439;-72
2022/08/11 13:49:18;;;;;;;5.47;4.97;;;30.80;47.10;;;;;;4915078;29;20401;-72
2022/08/11 13:51:47;;;;;;;5.00;4.60;;;30.80;47.30;;;;;;4916244;29;20852;-72
2022/08/11 13:54:25;;;;;;;5.77;4.50;;;30.90;47.20;;;;;;4917093;29;20449;-72
2022/08/11 13:56:59;;;;;;;4.50;4.10;;;30.90;47.20;;;;;;4917366;29;20420;-72
2022/08/11 13:59:26;;;;;;;4.83;4.43;;;31.00;47.20;;;;;;4917090;29;20448;-72
2022/08/11 14:01:59;;;;;;;5.30;4.80;;;31.00;47.00;;;;;;4915734;29;20463;-72
2022/08/11 14:04:34;;;;;;;5.10;4.70;;;31.00;47.40;;;;;;4917142;29;20428;-72
2022/08/11 14:07:09;;;;;;;5.30;4.90;;;31.00;46.70;;;;;;4917015;29;20426;-72
2022/08/11 14:09:41;;;;;;;4.70;4.40;;;31.10;46.80;;;;;;4931808;29;20472;-72
2022/08/11 14:15:13;;;;;;;5.37;4.97;;;31.10;46.70;;;;;;4916004;29;20491;-72
2022/08/11 14:17:41;;;;;;;5.57;5.10;;;31.20;46.80;;;;;;4931436;29;20471;-72
2022/08/11 14:20:16;;;;;;;4.93;4.53;;;31.20;46.80;;;;;;4917061;29;20481;-73
2022/08/11 14:22:46;;;;;;;5.10;4.70;;;31.30;46.80;;;;;;4916718;29;20460;-72
2022/08/11 14:25:15;;;;;;;5.50;5.00;;;31.30;46.90;;;;;;4916709;29;20449;-71
2022/08/11 14:27:48;;;;;;;5.53;5.03;;;31.30;46.90;;;;;;4931271;29;20420;-72
2022/08/11 14:33:05;;;;;;;5.30;5.00;;;31.40;46.80;;;;;;4916579;29;20808;-72
2022/08/11 14:35:32;;;;;;;4.83;4.53;;;31.40;46.70;;;;;;4911115;29;20796;-72
2022/08/11 14:38:01;;;;;;;4.97;4.50;;;31.40;46.60;;;;;;4909776;29;20983;-72
2022/08/11 14:48:57;;;;;;;5.53;5.10;;;31.60;46.20;;;;;;4891463;29;20433;-78
2022/08/11 14:51:25;;;;;;;5.33;4.93;;;31.60;46.20;;;;;;4892786;29;20858;-74
2022/08/11 14:56:34;;;;;;;4.70;4.40;;;31.60;46.20;;;;;;4916516;29;20437;-74
2022/08/11 14:56:40;;;;;;;5.10;4.70;;;31.70;46.20;;;;;;4897185;29;20416;-73
2022/08/11 14:59:06;;;;;;;4.90;4.50;;;31.70;46.30;;;;;;4893128;29;20466;-74
2022/08/11 15:04:21;;;;;;;5.20;4.80;;;31.80;46.30;;;;;;4911905;29;20502;-74
2022/08/11 15:06:47;;;;;;;8.73;4.80;;;31.80;46.20;;;;;;4893214;29;20449;-74
2022/08/11 15:09:14;;;;;;;4.80;4.50;;;31.80;46.00;;;;;;4910549;29;20931;-74
2022/08/11 15:17:21;;;;;;;5.10;4.70;;;31.90;45.90;;;;;;4905363;29;20468;-74
2022/08/11 15:25:19;;;;;;;5.80;5.30;;;32.00;45.80;;;;;;4912765;29;20475;-73
2022/08/11 15:45:49;;;;;;;7.43;5.03;;;32.30;45.80;;;;;;4911456;29;20445;-72
2022/08/11 15:48:26;;;;;;;5.57;5.13;;;32.30;45.70;;;;;;4908483;29;20473;-73
2022/08/11 15:50:55;;;;;;;5.07;4.67;;;32.30;45.60;;;;;;4911199;29;20429;-74
2022/08/11 15:53:40;;;;;;;5.37;4.90;;;32.40;45.60;;;;;;4912657;29;20452;-73
2022/08/11 15:56:07;;;;;;;4.80;4.43;;;32.40;45.40;;;;;;4902167;29;20806;-74
2022/08/11 16:04:19;;;;;;;5.77;5.37;;;32.60;45.40;;;;;;4908282;29;20423;-74
2022/08/11 16:06:53;;;;;;;6.77;5.00;;;32.60;45.20;;;;;;4911521;29;20416;-74
2022/08/11 16:09:28;;;;;;;5.30;4.40;;;32.60;45.10;;;;;;4910102;29;20432;-73
2022/08/11 16:11:58;;;;;;;4.90;4.50;;;32.60;44.90;;;;;;4911082;29;20551;-74
2022/08/11 16:17:20;;;;;;;4.87;4.47;;;32.80;45.40;;;;;;4917242;29;20459;-74
2022/08/11 16:19:52;;;;;;;6.00;5.50;;;32.80;44.70;;;;;;4915993;29;20412;-74
2022/08/11 16:22:40;;;;;;;5.50;5.03;;;32.80;44.50;;;;;;4930404;29;20433;-74
2022/08/11 16:25:13;;;;;;;5.20;4.70;;;32.90;44.60;;;;;;4914838;29;20420;-74
2022/08/11 16:27:46;;;;;;;4.87;4.47;;;33.00;44.50;;;;;;4915852;29;20451;-74
2022/08/11 16:30:15;;;;;;;5.23;4.83;;;33.00;44.30;;;;;;4899315;29;20950;-73
2022/08/11 16:32:53;;;;;;;6.73;4.60;;;33.10;44.40;;;;;;4899516;29;20464;-74
2022/08/11 16:41:02;;;;;;;5.20;4.53;;;33.20;44.20;;;;;;4900640;29;20433;-74
2022/08/11 16:49:15;;;;;;;7.63;4.50;;;33.30;44.30;;;;;;4912918;29;20473;-74
2022/08/11 16:51:42;;;;;;;4.80;4.40;;;33.30;44.20;;;;;;4932100;29;20466;-74
2022/08/11 16:54:11;;;;;;;4.90;4.50;;;33.40;44.20;;;;;;4916608;29;20433;-74
2022/08/11 16:56:52;;;;;;;5.07;4.67;;;33.40;44.20;;;;;;4917163;29;20872;-74
2022/08/11 16:59:23;;;;;;;5.43;5.03;;;33.50;44.20;;;;;;4917678;29;20511;-74
2022/08/11 17:02:01;;;;;;;4.77;4.17;;;33.50;44.10;;;;;;4916670;29;20476;-74
2022/08/11 17:13:46;;;;;;;5.13;4.60;;;33.60;44.10;;;;;;4917533;29;20468;-74
2022/08/11 17:16:15;;;;;;;4.93;4.60;;;33.50;44.10;;;;;;4917890;29;20425;-74
2022/08/11 17:18:59;;;;;;;4.77;4.37;;;33.60;44.20;;;;;;4913357;29;20470;-73
2022/08/11 17:24:50;;;;;;;6.03;4.50;;;33.50;44.50;;;;;;4858434;29;20463;-75
2022/08/11 17:27:21;;;;;;;4.87;4.47;;;33.40;44.00;;;;;;4917129;29;20962;-75
2022/08/11 17:29:55;;;;;;;5.37;4.90;;;33.30;44.00;;;;;;4886506;29;20454;-75
2022/08/11 17:35:39;;;;;;;5.63;4.57;;;33.20;44.00;;;;;;4916590;29;20432;-75
2022/08/11 17:38:13;;;;;;;5.20;4.70;;;33.20;43.70;;;;;;4916007;29;20464;-75
2022/08/11 17:49:19;;;;;;;6.00;4.13;;;33.00;43.80;;;;;;4911626;29;20440;-75
2022/08/11 18:00:14;;;;;;;5.20;4.80;;;32.90;44.40;;;;;;4897302;29;20442;-76
2022/08/11 18:05:36;;;;;;;5.23;4.70;;;32.80;44.50;;;;;;4898712;29;20422;-77
